sensor_id;sensor_type;location;lat;lon;timestamp;P1;durP1;ratioP1;P2;durP2;ratioP2
23472;SDS011;11909;52.516;13.564;2022-11-03T00:00:02;12.73;;;7.10;;
23472;SDS011;11909;52.516;13.564;2022-11-03T00:02:29;13.57;;;7.10;;
23472;SDS011;11909;52.516;13.564;2022-11-03T00:04:56;9.13;;;6.35;;
23472;SDS011;11909;52.516;13.564;2022-11-03T00:07:42;11.93;;;6.45;;
23472;SDS011;11909;52.516;13.564;2022-11-03T00:10:10;12.23;;;6.70;;
23472;SDS011;11909;52.516;13.564;2022-11-03T00:12:36;12.00;;;6.88;;
23472;SDS011;11909;52.516;13.564;2022-11-03T00:15:03;11.85;;;6.45;;
23472;SDS011;11909;52.516;13.564;2022-11-03T00:17:30;11.55;;;6.47;;
23472;SDS011;11909;52.516;13.564;2022-11-03T00:19:56;13.75;;;5.63;;
23472;SDS011;11909;52.516;13.564;2022-11-03T00:22:23;13.23;;;6.40;;
23472;SDS011;11909;52.516;13.564;2022-11-03T00:24:49;12.48;;;6.00;;
23472;SDS011;11909;52.516;13.564;2022-11-03T00:27:17;11.50;;;6.00;;
23472;SDS011;11909;52.516;13.564;2022-11-03T00:29:44;11.32;;;6.03;;
23472;SDS011;11909;52.516;13.564;2022-11-03T00:32:10;8.07;;;5.70;;
23472;SDS011;11909;52.516;13.564;2022-11-03T00:34:37;12.00;;;5.75;;
23472;SDS011;11909;52.516;13.564;2022-11-03T00:37:04;10.82;;;6.10;;
23472;SDS011;11909;52.516;13.564;2022-11-03T00:39:30;13.48;;;7.07;;
23472;SDS011;11909;52.516;13.564;2022-11-03T00:41:57;9.65;;;6.20;;
23472;SDS011;11909;52.516;13.564;2022-11-03T00:44:25;10.75;;;6.70;;
23472;SDS011;11909;52.516;13.564;2022-11-03T00:46:51;8.50;;;6.13;;
23472;SDS011;11909;52.516;13.564;2022-11-03T00:49:18;12.05;;;6.18;;
23472;SDS011;11909;52.516;13.564;2022-11-03T00:51:44;10.68;;;5.68;;
23472;SDS011;11909;52.516;13.564;2022-11-03T00:54:10;9.32;;;6.28;;
23472;SDS011;11909;52.516;13.564;2022-11-03T00:56:38;8.77;;;5.85;;
23472;SDS011;11909;52.516;13.564;2022-11-03T00:59:06;12.73;;;5.93;;
23472;SDS011;11909;52.516;13.564;2022-11-03T01:01:36;10.57;;;6.07;;
23472;SDS011;11909;52.516;13.564;2022-11-03T01:04:04;9.63;;;6.00;;
23472;SDS011;11909;52.516;13.564;2022-11-03T01:06:55;10.50;;;5.70;;
23472;SDS011;11909;52.516;13.564;2022-11-03T01:09:24;15.82;;;6.30;;
23472;SDS011;11909;52.516;13.564;2022-11-03T01:11:54;11.65;;;5.88;;
23472;SDS011;11909;52.516;13.564;2022-11-03T01:14:23;10.38;;;5.45;;
23472;SDS011;11909;52.516;13.564;2022-11-03T01:16:53;12.63;;;5.53;;
23472;SDS011;11909;52.516;13.564;2022-11-03T01:19:19;10.38;;;5.30;;
23472;SDS011;11909;52.516;13.564;2022-11-03T01:21:46;11.48;;;5.78;;
23472;SDS011;11909;52.516;13.564;2022-11-03T01:24:12;11.93;;;4.78;;
23472;SDS011;11909;52.516;13.564;2022-11-03T01:26:39;9.15;;;5.13;;
23472;SDS011;11909;52.516;13.564;2022-11-03T01:29:05;11.93;;;5.18;;
23472;SDS011;11909;52.516;13.564;2022-11-03T01:31:32;8.25;;;4.70;;
23472;SDS011;11909;52.516;13.564;2022-11-03T01:34:00;11.35;;;5.35;;
23472;SDS011;11909;52.516;13.564;2022-11-03T01:36:26;8.40;;;4.95;;
23472;SDS011;11909;52.516;13.564;2022-11-03T01:38:53;13.00;;;5.70;;
23472;SDS011;11909;52.516;13.564;2022-11-03T01:41:21;10.68;;;4.88;;
23472;SDS011;11909;52.516;13.564;2022-11-03T01:43:50;11.43;;;4.80;;
23472;SDS011;11909;52.516;13.564;2022-11-03T01:46:37;9.55;;;4.60;;
23472;SDS011;11909;52.516;13.564;2022-11-03T01:49:08;14.90;;;5.32;;
23472;SDS011;11909;52.516;13.564;2022-11-03T01:51:40;10.52;;;5.13;;
23472;SDS011;11909;52.516;13.564;2022-11-03T01:54:11;9.45;;;5.00;;
23472;SDS011;11909;52.516;13.564;2022-11-03T01:56:43;12.77;;;6.13;;
23472;SDS011;11909;52.516;13.564;2022-11-03T01:59:11;11.55;;;5.57;;
23472;SDS011;11909;52.516;13.564;2022-11-03T02:01:38;10.57;;;5.72;;
23472;SDS011;11909;52.516;13.564;2022-11-03T02:04:08;13.35;;;6.20;;
23472;SDS011;11909;52.516;13.564;2022-11-03T02:06:38;14.15;;;5.75;;
23472;SDS011;11909;52.516;13.564;2022-11-03T02:09:06;11.80;;;5.50;;
23472;SDS011;11909;52.516;13.564;2022-11-03T02:11:34;9.18;;;4.85;;
23472;SDS011;11909;52.516;13.564;2022-11-03T02:14:19;14.50;;;5.35;;
23472;SDS011;11909;52.516;13.564;2022-11-03T02:16:48;9.68;;;5.07;;
23472;SDS011;11909;52.516;13.564;2022-11-03T02:19:20;10.45;;;5.10;;
23472;SDS011;11909;52.516;13.564;2022-11-03T02:21:57;8.48;;;4.95;;
23472;SDS011;11909;52.516;13.564;2022-11-03T02:24:30;10.43;;;4.95;;
23472;SDS011;11909;52.516;13.564;2022-11-03T02:27:09;9.68;;;5.50;;
23472;SDS011;11909;52.516;13.564;2022-11-03T02:29:35;12.38;;;5.72;;
23472;SDS011;11909;52.516;13.564;2022-11-03T02:32:03;10.23;;;5.30;;
23472;SDS011;11909;52.516;13.564;2022-11-03T02:34:36;9.07;;;5.30;;
23472;SDS011;11909;52.516;13.564;2022-11-03T02:37:07;10.88;;;4.95;;
23472;SDS011;11909;52.516;13.564;2022-11-03T02:39:37;11.10;;;5.22;;
23472;SDS011;11909;52.516;13.564;2022-11-03T02:42:10;10.07;;;5.50;;
23472;SDS011;11909;52.516;13.564;2022-11-03T02:44:38;11.40;;;4.93;;
23472;SDS011;11909;52.516;13.564;2022-11-03T02:47:07;9.90;;;5.20;;
23472;SDS011;11909;52.516;13.564;2022-11-03T02:49:37;12.43;;;5.70;;
23472;SDS011;11909;52.516;13.564;2022-11-03T02:52:04;9.85;;;5.28;;
23472;SDS011;11909;52.516;13.564;2022-11-03T02:54:32;13.85;;;5.40;;
23472;SDS011;11909;52.516;13.564;2022-11-03T02:57:04;10.52;;;5.43;;
23472;SDS011;11909;52.516;13.564;2022-11-03T02:59:36;8.57;;;5.18;;
23472;SDS011;11909;52.516;13.564;2022-11-03T03:02:08;8.10;;;5.10;;
23472;SDS011;11909;52.516;13.564;2022-11-03T03:04:41;9.63;;;4.55;;
23472;SDS011;11909;52.516;13.564;2022-11-03T03:07:12;9.27;;;4.55;;
23472;SDS011;11909;52.516;13.564;2022-11-03T03:09:43;12.88;;;4.60;;
23472;SDS011;11909;52.516;13.564;2022-11-03T03:12:15;11.20;;;5.13;;
23472;SDS011;11909;52.516;13.564;2022-11-03T03:14:45;11.95;;;5.38;;
23472;SDS011;11909;52.516;13.564;2022-11-03T03:19:46;14.32;;;5.40;;
23472;SDS011;11909;52.516;13.564;2022-11-03T03:22:19;12.48;;;4.97;;
23472;SDS011;11909;52.516;13.564;2022-11-03T03:24:50;8.70;;;4.63;;
23472;SDS011;11909;52.516;13.564;2022-11-03T03:27:22;14.73;;;5.10;;
23472;SDS011;11909;52.516;13.564;2022-11-03T03:29:53;9.25;;;4.60;;
23472;SDS011;11909;52.516;13.564;2022-11-03T03:32:24;11.20;;;5.25;;
23472;SDS011;11909;52.516;13.564;2022-11-03T03:34:53;10.18;;;5.22;;
23472;SDS011;11909;52.516;13.564;2022-11-03T03:37:21;9.88;;;5.03;;
23472;SDS011;11909;52.516;13.564;2022-11-03T03:39:50;12.65;;;4.78;;
23472;SDS011;11909;52.516;13.564;2022-11-03T03:42:20;10.30;;;4.63;;
23472;SDS011;11909;52.516;13.564;2022-11-03T03:44:50;11.63;;;4.95;;
23472;SDS011;11909;52.516;13.564;2022-11-03T03:47:21;8.90;;;4.75;;
23472;SDS011;11909;52.516;13.564;2022-11-03T03:49:51;8.93;;;4.65;;
23472;SDS011;11909;52.516;13.564;2022-11-03T03:52:18;13.57;;;5.05;;
23472;SDS011;11909;52.516;13.564;2022-11-03T03:54:45;9.98;;;4.40;;
23472;SDS011;11909;52.516;13.564;2022-11-03T03:57:12;14.48;;;5.28;;
23472;SDS011;11909;52.516;13.564;2022-11-03T03:59:40;12.02;;;4.65;;
23472;SDS011;11909;52.516;13.564;2022-11-03T04:02:08;11.88;;;4.68;;
23472;SDS011;11909;52.516;13.564;2022-11-03T04:04:35;10.00;;;4.55;;
23472;SDS011;11909;52.516;13.564;2022-11-03T04:07:01;10.98;;;4.75;;
23472;SDS011;11909;52.516;13.564;2022-11-03T04:09:46;10.38;;;5.20;;
23472;SDS011;11909;52.516;13.564;2022-11-03T04:12:12;11.35;;;5.13;;
23472;SDS011;11909;52.516;13.564;2022-11-03T04:14:57;10.35;;;4.47;;
23472;SDS011;11909;52.516;13.564;2022-11-03T04:17:42;15.07;;;4.78;;
23472;SDS011;11909;52.516;13.564;2022-11-03T04:20:28;8.82;;;5.32;;
23472;SDS011;11909;52.516;13.564;2022-11-03T04:23:13;11.05;;;5.35;;
23472;SDS011;11909;52.516;13.564;2022-11-03T04:25:39;11.15;;;4.65;;
23472;SDS011;11909;52.516;13.564;2022-11-03T04:28:08;9.15;;;4.95;;
23472;SDS011;11909;52.516;13.564;2022-11-03T04:30:37;9.17;;;4.97;;
23472;SDS011;11909;52.516;13.564;2022-11-03T04:33:05;13.25;;;5.40;;
23472;SDS011;11909;52.516;13.564;2022-11-03T04:35:39;8.93;;;4.43;;
23472;SDS011;11909;52.516;13.564;2022-11-03T04:38:08;12.15;;;4.60;;
23472;SDS011;11909;52.516;13.564;2022-11-03T04:40:47;9.45;;;4.57;;
23472;SDS011;11909;52.516;13.564;2022-11-03T04:43:16;9.70;;;4.82;;
23472;SDS011;11909;52.516;13.564;2022-11-03T04:45:44;9.70;;;4.93;;
23472;SDS011;11909;52.516;13.564;2022-11-03T04:48:14;8.75;;;4.57;;
23472;SDS011;11909;52.516;13.564;2022-11-03T04:50:42;12.90;;;4.72;;
23472;SDS011;11909;52.516;13.564;2022-11-03T04:53:12;10.82;;;4.93;;
23472;SDS011;11909;52.516;13.564;2022-11-03T04:55:40;9.00;;;4.63;;
23472;SDS011;11909;52.516;13.564;2022-11-03T04:58:10;10.38;;;4.75;;
23472;SDS011;11909;52.516;13.564;2022-11-03T05:00:42;10.18;;;4.20;;
23472;SDS011;11909;52.516;13.564;2022-11-03T05:03:09;7.35;;;4.20;;
23472;SDS011;11909;52.516;13.564;2022-11-03T05:05:45;7.30;;;4.25;;
23472;SDS011;11909;52.516;13.564;2022-11-03T05:08:11;10.50;;;4.82;;
23472;SDS011;11909;52.516;13.564;2022-11-03T05:10:38;8.20;;;4.60;;
23472;SDS011;11909;52.516;13.564;2022-11-03T05:13:07;10.38;;;4.63;;
23472;SDS011;11909;52.516;13.564;2022-11-03T05:15:41;10.40;;;4.50;;
23472;SDS011;11909;52.516;13.564;2022-11-03T05:18:13;11.40;;;4.90;;
23472;SDS011;11909;52.516;13.564;2022-11-03T05:20:45;7.93;;;4.68;;
23472;SDS011;11909;52.516;13.564;2022-11-03T05:23:14;9.20;;;4.85;;
23472;SDS011;11909;52.516;13.564;2022-11-03T05:25:41;9.55;;;4.97;;
23472;SDS011;11909;52.516;13.564;2022-11-03T05:28:15;7.95;;;4.47;;
23472;SDS011;11909;52.516;13.564;2022-11-03T05:30:46;12.63;;;4.20;;
23472;SDS011;11909;52.516;13.564;2022-11-03T05:33:24;8.85;;;3.90;;
23472;SDS011;11909;52.516;13.564;2022-11-03T05:35:52;9.32;;;3.90;;
23472;SDS011;11909;52.516;13.564;2022-11-03T05:38:19;12.05;;;4.07;;
23472;SDS011;11909;52.516;13.564;2022-11-03T05:40:51;7.65;;;3.42;;
23472;SDS011;11909;52.516;13.564;2022-11-03T05:43:19;8.70;;;4.78;;
23472;SDS011;11909;52.516;13.564;2022-11-03T05:45:46;8.43;;;3.90;;
23472;SDS011;11909;52.516;13.564;2022-11-03T05:48:17;11.48;;;3.92;;
23472;SDS011;11909;52.516;13.564;2022-11-03T05:50:52;9.20;;;3.95;;
23472;SDS011;11909;52.516;13.564;2022-11-03T05:53:24;9.00;;;4.05;;
23472;SDS011;11909;52.516;13.564;2022-11-03T05:55:53;8.98;;;3.97;;
23472;SDS011;11909;52.516;13.564;2022-11-03T05:58:23;9.68;;;4.10;;
23472;SDS011;11909;52.516;13.564;2022-11-03T06:00:52;8.45;;;3.88;;
23472;SDS011;11909;52.516;13.564;2022-11-03T06:03:23;8.40;;;4.10;;
23472;SDS011;11909;52.516;13.564;2022-11-03T06:05:52;9.38;;;4.40;;
23472;SDS011;11909;52.516;13.564;2022-11-03T06:08:19;11.63;;;4.45;;
23472;SDS011;11909;52.516;13.564;2022-11-03T06:10:49;10.88;;;4.47;;
23472;SDS011;11909;52.516;13.564;2022-11-03T06:13:18;9.55;;;4.30;;
23472;SDS011;11909;52.516;13.564;2022-11-03T06:15:55;10.70;;;4.82;;
23472;SDS011;11909;52.516;13.564;2022-11-03T06:18:25;14.95;;;4.82;;
23472;SDS011;11909;52.516;13.564;2022-11-03T06:20:57;10.98;;;4.60;;
23472;SDS011;11909;52.516;13.564;2022-11-03T06:23:27;9.93;;;4.55;;
23472;SDS011;11909;52.516;13.564;2022-11-03T06:25:54;12.55;;;4.88;;
23472;SDS011;11909;52.516;13.564;2022-11-03T06:28:23;9.07;;;4.40;;
23472;SDS011;11909;52.516;13.564;2022-11-03T06:30:51;8.48;;;4.43;;
23472;SDS011;11909;52.516;13.564;2022-11-03T06:33:19;6.63;;;4.18;;
23472;SDS011;11909;52.516;13.564;2022-11-03T06:35:50;7.72;;;4.28;;
23472;SDS011;11909;52.516;13.564;2022-11-03T06:38:20;10.65;;;4.90;;
23472;SDS011;11909;52.516;13.564;2022-11-03T06:40:49;7.97;;;4.65;;
23472;SDS011;11909;52.516;13.564;2022-11-03T06:43:21;12.25;;;4.25;;
23472;SDS011;11909;52.516;13.564;2022-11-03T06:45:50;11.15;;;4.10;;
23472;SDS011;11909;52.516;13.564;2022-11-03T06:48:21;8.38;;;4.15;;
23472;SDS011;11909;52.516;13.564;2022-11-03T06:50:53;9.38;;;4.28;;
23472;SDS011;11909;52.516;13.564;2022-11-03T06:53:22;14.63;;;4.53;;
23472;SDS011;11909;52.516;13.564;2022-11-03T06:55:51;9.80;;;4.22;;
23472;SDS011;11909;52.516;13.564;2022-11-03T06:58:22;8.85;;;4.18;;
23472;SDS011;11909;52.516;13.564;2022-11-03T07:00:52;11.88;;;4.60;;
23472;SDS011;11909;52.516;13.564;2022-11-03T07:03:22;10.32;;;4.43;;
23472;SDS011;11909;52.516;13.564;2022-11-03T07:05:55;23.85;;;7.38;;
23472;SDS011;11909;52.516;13.564;2022-11-03T07:08:24;8.65;;;4.53;;
23472;SDS011;11909;52.516;13.564;2022-11-03T07:10:56;7.15;;;4.85;;
23472;SDS011;11909;52.516;13.564;2022-11-03T07:13:26;9.50;;;4.60;;
23472;SDS011;11909;52.516;13.564;2022-11-03T07:15:52;9.98;;;4.78;;
23472;SDS011;11909;52.516;13.564;2022-11-03T07:18:20;10.63;;;4.57;;
23472;SDS011;11909;52.516;13.564;2022-11-03T07:20:49;10.48;;;4.78;;
23472;SDS011;11909;52.516;13.564;2022-11-03T07:23:18;12.80;;;4.40;;
23472;SDS011;11909;52.516;13.564;2022-11-03T07:25:50;9.27;;;4.80;;
23472;SDS011;11909;52.516;13.564;2022-11-03T07:28:18;10.77;;;4.35;;
23472;SDS011;11909;52.516;13.564;2022-11-03T07:30:46;7.68;;;4.18;;
23472;SDS011;11909;52.516;13.564;2022-11-03T07:33:13;8.50;;;4.45;;
23472;SDS011;11909;52.516;13.564;2022-11-03T07:35:44;14.55;;;4.88;;
23472;SDS011;11909;52.516;13.564;2022-11-03T07:38:12;9.60;;;4.30;;
23472;SDS011;11909;52.516;13.564;2022-11-03T07:40:41;9.55;;;4.38;;
23472;SDS011;11909;52.516;13.564;2022-11-03T07:43:10;16.67;;;5.13;;
23472;SDS011;11909;52.516;13.564;2022-11-03T07:45:41;12.32;;;4.72;;
23472;SDS011;11909;52.516;13.564;2022-11-03T07:48:10;12.57;;;4.85;;
23472;SDS011;11909;52.516;13.564;2022-11-03T07:50:43;10.32;;;5.28;;
23472;SDS011;11909;52.516;13.564;2022-11-03T07:53:11;7.68;;;4.22;;
23472;SDS011;11909;52.516;13.564;2022-11-03T07:55:44;8.23;;;3.60;;
23472;SDS011;11909;52.516;13.564;2022-11-03T07:58:20;25.85;;;10.07;;
23472;SDS011;11909;52.516;13.564;2022-11-03T08:00:49;18.08;;;8.43;;
23472;SDS011;11909;52.516;13.564;2022-11-03T08:03:24;13.02;;;5.32;;
23472;SDS011;11909;52.516;13.564;2022-11-03T08:05:57;11.30;;;4.90;;
23472;SDS011;11909;52.516;13.564;2022-11-03T08:08:23;14.35;;;4.85;;
23472;SDS011;11909;52.516;13.564;2022-11-03T08:10:51;9.98;;;5.07;;
23472;SDS011;11909;52.516;13.564;2022-11-03T08:13:17;10.68;;;4.40;;
23472;SDS011;11909;52.516;13.564;2022-11-03T08:15:44;9.35;;;4.45;;
23472;SDS011;11909;52.516;13.564;2022-11-03T08:18:10;8.77;;;4.72;;
23472;SDS011;11909;52.516;13.564;2022-11-03T08:20:36;12.30;;;4.78;;
23472;SDS011;11909;52.516;13.564;2022-11-03T08:23:03;14.48;;;4.75;;
23472;SDS011;11909;52.516;13.564;2022-11-03T08:25:29;14.25;;;4.43;;
23472;SDS011;11909;52.516;13.564;2022-11-03T08:27:57;9.65;;;3.90;;
23472;SDS011;11909;52.516;13.564;2022-11-03T08:30:26;12.50;;;4.00;;
23472;SDS011;11909;52.516;13.564;2022-11-03T08:33:00;12.75;;;3.80;;
23472;SDS011;11909;52.516;13.564;2022-11-03T08:35:28;12.45;;;3.63;;
23472;SDS011;11909;52.516;13.564;2022-11-03T08:37:54;9.35;;;3.67;;
23472;SDS011;11909;52.516;13.564;2022-11-03T08:40:21;9.85;;;3.85;;
23472;SDS011;11909;52.516;13.564;2022-11-03T08:42:47;6.88;;;2.92;;
23472;SDS011;11909;52.516;13.564;2022-11-03T08:45:16;5.82;;;3.20;;
23472;SDS011;11909;52.516;13.564;2022-11-03T08:47:43;9.80;;;3.60;;
23472;SDS011;11909;52.516;13.564;2022-11-03T08:50:09;10.07;;;3.35;;
23472;SDS011;11909;52.516;13.564;2022-11-03T08:52:36;6.63;;;3.28;;
23472;SDS011;11909;52.516;13.564;2022-11-03T08:55:03;10.82;;;3.75;;
23472;SDS011;11909;52.516;13.564;2022-11-03T08:57:30;14.13;;;3.13;;
23472;SDS011;11909;52.516;13.564;2022-11-03T08:59:56;13.05;;;3.55;;
23472;SDS011;11909;52.516;13.564;2022-11-03T09:02:24;7.15;;;2.85;;
23472;SDS011;11909;52.516;13.564;2022-11-03T09:04:51;23.00;;;8.13;;
23472;SDS011;11909;52.516;13.564;2022-11-03T09:07:17;8.57;;;3.92;;
23472;SDS011;11909;52.516;13.564;2022-11-03T09:09:44;9.25;;;3.10;;
23472;SDS011;11909;52.516;13.564;2022-11-03T09:12:10;14.02;;;6.47;;
23472;SDS011;11909;52.516;13.564;2022-11-03T09:14:37;12.85;;;4.03;;
23472;SDS011;11909;52.516;13.564;2022-11-03T09:17:04;9.95;;;3.13;;
23472;SDS011;11909;52.516;13.564;2022-11-03T09:19:32;8.48;;;2.97;;
23472;SDS011;11909;52.516;13.564;2022-11-03T09:21:58;7.43;;;2.80;;
23472;SDS011;11909;52.516;13.564;2022-11-03T09:24:25;7.32;;;2.90;;
23472;SDS011;11909;52.516;13.564;2022-11-03T09:26:52;8.27;;;2.72;;
23472;SDS011;11909;52.516;13.564;2022-11-03T09:29:18;11.80;;;4.03;;
23472;SDS011;11909;52.516;13.564;2022-11-03T09:31:45;11.50;;;3.28;;
23472;SDS011;11909;52.516;13.564;2022-11-03T09:34:11;14.02;;;3.17;;
23472;SDS011;11909;52.516;13.564;2022-11-03T09:36:41;10.70;;;2.95;;
23472;SDS011;11909;52.516;13.564;2022-11-03T09:39:08;8.07;;;2.75;;
23472;SDS011;11909;52.516;13.564;2022-11-03T09:41:34;8.85;;;3.00;;
23472;SDS011;11909;52.516;13.564;2022-11-03T09:44:01;11.82;;;3.40;;
23472;SDS011;11909;52.516;13.564;2022-11-03T09:46:28;17.10;;;6.25;;
23472;SDS011;11909;52.516;13.564;2022-11-03T09:48:55;7.38;;;2.85;;
23472;SDS011;11909;52.516;13.564;2022-11-03T09:51:22;7.47;;;2.97;;
23472;SDS011;11909;52.516;13.564;2022-11-03T09:53:53;9.57;;;2.78;;
23472;SDS011;11909;52.516;13.564;2022-11-03T09:56:23;11.27;;;3.10;;
23472;SDS011;11909;52.516;13.564;2022-11-03T09:58:51;8.80;;;2.72;;
23472;SDS011;11909;52.516;13.564;2022-11-03T10:01:17;7.50;;;2.35;;
23472;SDS011;11909;52.516;13.564;2022-11-03T10:03:44;10.38;;;2.90;;
23472;SDS011;11909;52.516;13.564;2022-11-03T10:06:10;7.13;;;2.38;;
23472;SDS011;11909;52.516;13.564;2022-11-03T10:08:38;5.55;;;2.53;;
23472;SDS011;11909;52.516;13.564;2022-11-03T10:11:07;9.20;;;2.45;;
23472;SDS011;11909;52.516;13.564;2022-11-03T10:13:35;7.30;;;2.28;;
23472;SDS011;11909;52.516;13.564;2022-11-03T10:16:05;7.38;;;2.85;;
23472;SDS011;11909;52.516;13.564;2022-11-03T10:18:33;6.80;;;2.15;;
23472;SDS011;11909;52.516;13.564;2022-11-03T10:21:02;12.40;;;2.97;;
23472;SDS011;11909;52.516;13.564;2022-11-03T10:23:30;7.05;;;2.85;;
23472;SDS011;11909;52.516;13.564;2022-11-03T10:25:58;9.95;;;2.60;;
23472;SDS011;11909;52.516;13.564;2022-11-03T10:28:35;5.70;;;2.20;;
23472;SDS011;11909;52.516;13.564;2022-11-03T10:31:03;8.52;;;2.42;;
23472;SDS011;11909;52.516;13.564;2022-11-03T10:33:33;11.45;;;4.00;;
23472;SDS011;11909;52.516;13.564;2022-11-03T10:36:02;7.25;;;3.03;;
23472;SDS011;11909;52.516;13.564;2022-11-03T10:38:30;5.78;;;2.20;;
23472;SDS011;11909;52.516;13.564;2022-11-03T10:41:11;12.40;;;2.42;;
23472;SDS011;11909;52.516;13.564;2022-11-03T10:43:41;14.23;;;2.45;;
23472;SDS011;11909;52.516;13.564;2022-11-03T10:46:09;9.02;;;2.10;;
23472;SDS011;11909;52.516;13.564;2022-11-03T10:48:37;10.00;;;2.72;;
23472;SDS011;11909;52.516;13.564;2022-11-03T10:51:04;11.23;;;4.80;;
23472;SDS011;11909;52.516;13.564;2022-11-03T10:53:30;11.80;;;2.65;;
23472;SDS011;11909;52.516;13.564;2022-11-03T10:55:57;5.40;;;2.22;;
23472;SDS011;11909;52.516;13.564;2022-11-03T10:58:25;8.10;;;2.13;;
23472;SDS011;11909;52.516;13.564;2022-11-03T11:00:51;7.47;;;2.38;;
23472;SDS011;11909;52.516;13.564;2022-11-03T11:03:18;6.65;;;2.38;;
23472;SDS011;11909;52.516;13.564;2022-11-03T11:05:44;9.40;;;2.42;;
23472;SDS011;11909;52.516;13.564;2022-11-03T11:08:12;6.82;;;2.28;;
23472;SDS011;11909;52.516;13.564;2022-11-03T11:10:42;6.93;;;2.38;;
23472;SDS011;11909;52.516;13.564;2022-11-03T11:13:22;9.50;;;2.40;;
23472;SDS011;11909;52.516;13.564;2022-11-03T11:15:52;8.02;;;2.53;;
23472;SDS011;11909;52.516;13.564;2022-11-03T11:33:40;7.00;;;2.13;;
23472;SDS011;11909;52.516;13.564;2022-11-03T11:38:52;5.35;;;1.90;;
23472;SDS011;11909;52.516;13.564;2022-11-03T11:44:49;6.50;;;2.25;;
23472;SDS011;11909;52.516;13.564;2022-11-03T11:47:23;5.20;;;1.83;;
23472;SDS011;11909;52.516;13.564;2022-11-03T11:50:14;8.07;;;2.33;;
23472;SDS011;11909;52.516;13.564;2022-11-03T11:52:49;5.18;;;2.10;;
23472;SDS011;11909;52.516;13.564;2022-11-03T11:55:24;6.13;;;1.75;;
23472;SDS011;11909;52.516;13.564;2022-11-03T11:57:55;10.30;;;2.17;;
23472;SDS011;11909;52.516;13.564;2022-11-03T12:00:24;5.80;;;2.38;;
23472;SDS011;11909;52.516;13.564;2022-11-03T12:02:52;7.15;;;2.53;;
23472;SDS011;11909;52.516;13.564;2022-11-03T12:05:21;5.20;;;1.92;;
23472;SDS011;11909;52.516;13.564;2022-11-03T12:07:50;8.95;;;2.20;;
23472;SDS011;11909;52.516;13.564;2022-11-03T12:10:18;12.00;;;2.90;;
23472;SDS011;11909;52.516;13.564;2022-11-03T12:12:46;6.72;;;2.17;;
23472;SDS011;11909;52.516;13.564;2022-11-03T12:18:27;20.15;;;9.25;;
23472;SDS011;11909;52.516;13.564;2022-11-03T12:20:56;6.25;;;2.45;;
23472;SDS011;11909;52.516;13.564;2022-11-03T12:23:38;7.40;;;2.35;;
23472;SDS011;11909;52.516;13.564;2022-11-03T12:26:12;7.88;;;2.80;;
23472;SDS011;11909;52.516;13.564;2022-11-03T12:28:40;7.65;;;2.35;;
23472;SDS011;11909;52.516;13.564;2022-11-03T12:31:07;10.80;;;2.40;;
23472;SDS011;11909;52.516;13.564;2022-11-03T12:33:33;8.00;;;2.30;;
23472;SDS011;11909;52.516;13.564;2022-11-03T12:36:01;6.97;;;2.05;;
23472;SDS011;11909;52.516;13.564;2022-11-03T12:38:28;7.25;;;2.65;;
23472;SDS011;11909;52.516;13.564;2022-11-03T12:40:54;6.53;;;2.40;;
23472;SDS011;11909;52.516;13.564;2022-11-03T12:43:20;9.52;;;2.30;;
23472;SDS011;11909;52.516;13.564;2022-11-03T12:45:47;6.72;;;2.42;;
23472;SDS011;11909;52.516;13.564;2022-11-03T12:48:13;4.90;;;2.05;;
23472;SDS011;11909;52.516;13.564;2022-11-03T12:50:40;7.43;;;2.30;;
23472;SDS011;11909;52.516;13.564;2022-11-03T12:53:07;5.10;;;1.90;;
23472;SDS011;11909;52.516;13.564;2022-11-03T12:55:34;8.88;;;4.18;;
23472;SDS011;11909;52.516;13.564;2022-11-03T12:58:00;6.97;;;2.58;;
23472;SDS011;11909;52.516;13.564;2022-11-03T13:00:27;6.75;;;2.38;;
23472;SDS011;11909;52.516;13.564;2022-11-03T13:02:54;7.55;;;2.47;;
23472;SDS011;11909;52.516;13.564;2022-11-03T13:05:20;7.30;;;2.45;;
23472;SDS011;11909;52.516;13.564;2022-11-03T13:07:47;5.95;;;2.17;;
23472;SDS011;11909;52.516;13.564;2022-11-03T13:10:15;7.00;;;2.40;;
23472;SDS011;11909;52.516;13.564;2022-11-03T13:12:41;4.38;;;1.90;;
23472;SDS011;11909;52.516;13.564;2022-11-03T13:15:09;5.85;;;2.00;;
23472;SDS011;11909;52.516;13.564;2022-11-03T13:17:37;9.02;;;2.28;;
23472;SDS011;11909;52.516;13.564;2022-11-03T13:20:04;6.18;;;2.05;;
23472;SDS011;11909;52.516;13.564;2022-11-03T13:22:31;7.47;;;2.20;;
23472;SDS011;11909;52.516;13.564;2022-11-03T13:24:58;11.05;;;2.63;;
23472;SDS011;11909;52.516;13.564;2022-11-03T13:27:25;7.32;;;2.55;;
23472;SDS011;11909;52.516;13.564;2022-11-03T13:29:52;8.32;;;2.53;;
23472;SDS011;11909;52.516;13.564;2022-11-03T13:32:20;6.88;;;2.22;;
23472;SDS011;11909;52.516;13.564;2022-11-03T13:34:47;5.32;;;2.53;;
23472;SDS011;11909;52.516;13.564;2022-11-03T13:37:13;6.25;;;2.38;;
23472;SDS011;11909;52.516;13.564;2022-11-03T13:39:40;8.45;;;2.38;;
23472;SDS011;11909;52.516;13.564;2022-11-03T13:42:06;11.27;;;2.70;;
23472;SDS011;11909;52.516;13.564;2022-11-03T13:44:34;8.32;;;2.42;;
23472;SDS011;11909;52.516;13.564;2022-11-03T13:47:00;5.55;;;2.47;;
23472;SDS011;11909;52.516;13.564;2022-11-03T13:49:27;7.68;;;2.58;;
23472;SDS011;11909;52.516;13.564;2022-11-03T13:51:54;7.28;;;2.40;;
23472;SDS011;11909;52.516;13.564;2022-11-03T13:54:20;5.43;;;2.45;;
23472;SDS011;11909;52.516;13.564;2022-11-03T13:56:47;5.07;;;2.13;;
23472;SDS011;11909;52.516;13.564;2022-11-03T13:59:13;6.05;;;2.50;;
23472;SDS011;11909;52.516;13.564;2022-11-03T14:01:41;7.43;;;2.30;;
23472;SDS011;11909;52.516;13.564;2022-11-03T14:04:07;5.30;;;2.30;;
23472;SDS011;11909;52.516;13.564;2022-11-03T14:06:34;5.68;;;2.22;;
23472;SDS011;11909;52.516;13.564;2022-11-03T14:09:00;6.13;;;2.13;;
23472;SDS011;11909;52.516;13.564;2022-11-03T14:11:27;8.85;;;2.65;;
23472;SDS011;11909;52.516;13.564;2022-11-03T14:14:11;6.40;;;2.70;;
23472;SDS011;11909;52.516;13.564;2022-11-03T14:16:37;6.03;;;2.20;;
23472;SDS011;11909;52.516;13.564;2022-11-03T14:19:05;7.13;;;2.60;;
23472;SDS011;11909;52.516;13.564;2022-11-03T14:21:31;10.63;;;4.72;;
23472;SDS011;11909;52.516;13.564;2022-11-03T14:23:58;7.85;;;3.35;;
23472;SDS011;11909;52.516;13.564;2022-11-03T14:26:24;9.90;;;2.78;;
23472;SDS011;11909;52.516;13.564;2022-11-03T14:28:50;5.07;;;2.30;;
23472;SDS011;11909;52.516;13.564;2022-11-03T14:31:17;6.90;;;2.80;;
23472;SDS011;11909;52.516;13.564;2022-11-03T14:33:44;6.90;;;2.58;;
23472;SDS011;11909;52.516;13.564;2022-11-03T14:36:11;8.40;;;2.72;;
23472;SDS011;11909;52.516;13.564;2022-11-03T14:38:38;8.88;;;2.90;;
23472;SDS011;11909;52.516;13.564;2022-11-03T14:41:04;10.20;;;3.25;;
23472;SDS011;11909;52.516;13.564;2022-11-03T14:43:48;7.60;;;2.80;;
23472;SDS011;11909;52.516;13.564;2022-11-03T14:46:15;9.70;;;3.00;;
23472;SDS011;11909;52.516;13.564;2022-11-03T14:48:41;4.85;;;3.00;;
23472;SDS011;11909;52.516;13.564;2022-11-03T14:51:08;6.13;;;2.63;;
23472;SDS011;11909;52.516;13.564;2022-11-03T14:53:36;7.70;;;2.78;;
23472;SDS011;11909;52.516;13.564;2022-11-03T14:56:02;6.00;;;2.47;;
23472;SDS011;11909;52.516;13.564;2022-11-03T14:58:29;7.55;;;3.00;;
23472;SDS011;11909;52.516;13.564;2022-11-03T15:00:55;7.60;;;2.72;;
23472;SDS011;11909;52.516;13.564;2022-11-03T15:03:22;7.03;;;3.08;;
23472;SDS011;11909;52.516;13.564;2022-11-03T15:05:48;9.20;;;2.60;;